Sea Jet — WDD2601 — position and weather

sailwx.info

Track history (hours):
 
Tides and Currents Weather Stations Pressure Air Temp Water Temp Dewpoint Dewpoint Depression Visibility Wind Speed Wind Dir Waves Ship Positions

Sea Jet

Owner: Cross Sound Ferry Services, Inc., New London, CT. More information available from US FCC via Universal Licensing System and Coast Guard Vessel Documentation Center.

Last reported at 2014-Sep-29 00:33 UTC. Time now 2014-Oct-21 21:40 UTC.
Position N 41°20' W 072°05'.
Warning: this ship's position is 22 days out of date.

Length 33 m.

Type: High speed craft. MMSI: 367117430.

Date/timePositionNaut miles runAvg speedWind from/ knotsBaromVisibWave heightAir tempDewpointWater temp
2014-Sep-29 00:33N 41°20' W 072°05'10 9.6
2014-Sep-28 23:34N 41°12' W 072°12'9 9.5
2014-Sep-28 22:34N 41°20' W 072°05'9 8.7
2014-Sep-28 21:34N 41°13' W 072°12'10 9.7
2014-Sep-28 20:33N 41°21' W 072°06'0 0.0
2014-Sep-28 19:33N 41°21' W 072°06'0 0.0
2014-Sep-28 18:33N 41°21' W 072°06'0 0.0
2014-Sep-28 17:33N 41°21' W 072°06'0 0.0
2014-Sep-28 16:33N 41°21' W 072°06'0 0.0
2014-Sep-28 15:33N 41°21' W 072°06'3 3.1
2014-Sep-28 14:34N 41°18' W 072°05'9 9.5
2014-Sep-28 13:34N 41°11' W 072°13'1211.5
2014-Sep-28 12:33N 41°21' W 072°06'1413.8
2014-Sep-28 11:34N 41°09' W 072°14'1413.8
2014-Sep-28 10:33N 41°21' W 072°05'2 0.2
2014-Sep-28 00:34N 41°20' W 072°05'8 7.5
2014-Sep-27 23:34N 41°14' W 072°11'7 7.3
2014-Sep-27 22:34N 41°20' W 072°05'8 7.5
2014-Sep-27 21:34N 41°13' W 072°11'9 8.9
2014-Sep-27 20:33N 41°21' W 072°06'0 0.0
2014-Sep-27 19:33N 41°21' W 072°06'0 0.0
2014-Sep-27 18:33N 41°21' W 072°06'0 0.0
2014-Sep-27 17:33N 41°21' W 072°06'0 0.0
2014-Sep-27 16:33N 41°21' W 072°06'0 0.0
2014-Sep-27 15:33N 41°21' W 072°06'4 3.7
2014-Sep-27 14:34N 41°18' W 072°05'8 7.9
2014-Sep-27 13:34N 41°12' W 072°12'1110.7
2014-Sep-27 12:33N 41°21' W 072°06'1413.8
2014-Sep-27 11:33N 41°09' W 072°14'1413.8
2014-Sep-27 10:33N 41°21' W 072°05'0 0.3
2014-Sep-27 09:33N 41°21' W 072°06'5 0.5
2014-Sep-27 00:34N 41°17' W 072°06'5 5.3
2014-Sep-26 23:34N 41°13' W 072°11'8 8.1
2014-Sep-26 22:34N 41°20' W 072°05'1010.0
2014-Sep-26 21:34N 41°12' W 072°13'1111.0
2014-Sep-26 20:34N 41°21' W 072°06'0 0.0
2014-Sep-26 19:33N 41°21' W 072°06'0 0.0
2014-Sep-26 18:33N 41°21' W 072°06'0 0.0
2014-Sep-26 17:33N 41°21' W 072°06'0 0.0
2014-Sep-26 16:33N 41°21' W 072°06'0 0.0
2014-Sep-26 15:33N 41°21' W 072°06'3 3.5
2014-Sep-26 14:33N 41°18' W 072°05'1010.0
2014-Sep-26 13:34N 41°10' W 072°13'1312.6
2014-Sep-26 12:33N 41°21' W 072°06'1413.8
2014-Sep-26 11:33N 41°09' W 072°14'1413.7
2014-Sep-26 10:34N 41°21' W 072°05'0 0.3
2014-Sep-26 09:34N 41°21' W 072°06'2 0.3
2014-Sep-26 00:34N 41°19' W 072°05'9 9.1
2014-Sep-25 23:34N 41°12' W 072°13'9 9.5
2014-Sep-25 22:33N 41°20' W 072°05'9 9.5
2014-Sep-25 21:34N 41°12' W 072°12'1110.7
2014-Sep-25 20:33N 41°21' W 072°06'0 0.0
2014-Sep-25 19:34N 41°21' W 072°06'0 0.0
2014-Sep-25 18:34N 41°21' W 072°06'0 0.0
2014-Sep-25 17:33N 41°21' W 072°06'0 0.0
2014-Sep-25 16:33N 41°21' W 072°06'0 0.0
2014-Sep-25 15:33N 41°21' W 072°06'6 5.6
2014-Sep-25 14:33N 41°16' W 072°06'8 7.5
2014-Sep-25 13:34N 41°10' W 072°13'1212.4
2014-Sep-25 12:33N 41°21' W 072°06'1413.7
2014-Sep-25 11:33N 41°09' W 072°14'1413.6
2014-Sep-25 10:33N 41°21' W 072°05'1 0.1
2014-Sep-25 00:34N 41°20' W 072°05'1110.8
2014-Sep-24 23:34N 41°11' W 072°13'1111.0
2014-Sep-24 22:34N 41°20' W 072°05'9 8.6
2014-Sep-24 21:34N 41°13' W 072°11'9 9.5
2014-Sep-24 20:33N 41°21' W 072°06'0 0.0
2014-Sep-24 19:34N 41°21' W 072°06'0 0.0
2014-Sep-24 18:33N 41°21' W 072°06'0 0.0
2014-Sep-24 17:33N 41°21' W 072°06'0 0.0
2014-Sep-24 16:33N 41°21' W 072°06'0 0.0
2014-Sep-24 15:33N 41°21' W 072°06'2 1.7
2014-Sep-24 14:34N 41°20' W 072°05'1010.4
2014-Sep-24 13:34N 41°11' W 072°13'1211.6
2014-Sep-24 12:33N 41°21' W 072°06'1313.5
2014-Sep-24 11:34N 41°09' W 072°14'1313.5
2014-Sep-24 10:33N 41°21' W 072°06'1 0.1
2014-Sep-24 00:34N 41°20' W 072°05'7 6.5
2014-Sep-23 23:28N 41°14' W 072°10'7 7.8
2014-Sep-23 22:33N 41°20' W 072°05'9 9.4
2014-Sep-23 21:34N 41°12' W 072°12'1010.1
2014-Sep-23 20:33N 41°21' W 072°06'0 0.0
2014-Sep-23 19:33N 41°21' W 072°06'0 0.0
2014-Sep-23 18:33N 41°21' W 072°06'0 0.0
2014-Sep-23 17:34N 41°21' W 072°06'0 0.0
2014-Sep-23 16:33N 41°21' W 072°06'0 0.0
2014-Sep-23 15:33N 41°21' W 072°06'2 1.8
2014-Sep-23 14:34N 41°20' W 072°05'9 8.9
2014-Sep-23 13:34N 41°13' W 072°12'1010.0
2014-Sep-23 12:34N 41°21' W 072°06'1413.9
2014-Sep-23 11:33N 41°09' W 072°14'1413.9
2014-Sep-23 10:34N 41°21' W 072°05'1 0.1
2014-Sep-23 00:34N 41°20' W 072°05'10 9.6
2014-Sep-22 23:34N 41°12' W 072°13'10 9.8
2014-Sep-22 22:33N 41°20' W 072°05'10 9.7
2014-Sep-22 21:34N 41°12' W 072°12'1010.4
2014-Sep-22 20:33N 41°21' W 072°06'1 0.1
2014-Sep-22 00:33N 41°20' W 072°05'1110.7
2014-Sep-21 23:34N 41°12' W 072°13'1110.7
2014-Sep-21 22:34N 41°20' W 072°05'9 9.4
2014-Sep-21 21:34N 41°13' W 072°12'1010.0
2014-Sep-21 20:33N 41°21' W 072°06'0 0.0
2014-Sep-21 19:33N 41°21' W 072°06'0 0.0
2014-Sep-21 18:33N 41°21' W 072°06'0 0.0
2014-Sep-21 17:33N 41°21' W 072°06'0 0.0
2014-Sep-21 16:33N 41°21' W 072°06'0 0.0
2014-Sep-21 15:33N 41°21' W 072°06'1 1.5
2014-Sep-21 14:34N 41°20' W 072°05'8 7.8
2014-Sep-21 13:34N 41°13' W 072°11'9 8.8
2014-Sep-21 12:33N 41°21' W 072°06'1413.9
2014-Sep-21 11:34N 41°09' W 072°14'1413.8
2014-Sep-21 10:34N 41°21' W 072°05'1 0.1
2014-Sep-21 00:33N 41°20' W 072°05'9 8.9
2014-Sep-20 23:34N 41°13' W 072°12'9 9.1
2014-Sep-20 22:34N 41°20' W 072°05'8 8.1
2014-Sep-20 21:34N 41°14' W 072°11'9 8.7
2014-Sep-20 20:33N 41°21' W 072°06'0 0.0
2014-Sep-20 19:34N 41°21' W 072°06'0 0.0
2014-Sep-20 18:33N 41°21' W 072°06'0 0.0
2014-Sep-20 17:33N 41°21' W 072°06'0 0.0
2014-Sep-20 16:33N 41°21' W 072°06'0 0.0
2014-Sep-20 15:33N 41°21' W 072°06'1 1.3
2014-Sep-20 14:33N 41°20' W 072°05'1010.4
2014-Sep-20 13:34N 41°12' W 072°13'1111.2
2014-Sep-20 12:33N 41°21' W 072°06'1413.8
2014-Sep-20 11:33N 41°09' W 072°14'1413.8
2014-Sep-20 10:33N 41°21' W 072°05'0 0.3
2014-Sep-20 09:33N 41°21' W 072°06'1 0.2
2014-Sep-20 00:34N 41°20' W 072°05'1010.2
2014-Sep-19 23:34N 41°12' W 072°13'1010.1
2014-Sep-19 22:34N 41°20' W 072°05'10 9.7
2014-Sep-19 21:33N 41°12' W 072°13'1110.7
2014-Sep-19 20:33N 41°21' W 072°06'0 0.0
2014-Sep-19 19:34N 41°21' W 072°06'0 0.0
2014-Sep-19 18:34N 41°21' W 072°06'0 0.0
2014-Sep-19 17:34N 41°21' W 072°06'0 0.0
2014-Sep-19 16:33N 41°21' W 072°06'0 0.0
2014-Sep-19 15:33N 41°21' W 072°06'2 1.6
2014-Sep-19 14:34N 41°20' W 072°05'10 9.8
2014-Sep-19 13:33N 41°12' W 072°13'1111.0
2014-Sep-19 12:33N 41°21' W 072°06'1413.6
2014-Sep-19 11:33N 41°09' W 072°14'1313.5
2014-Sep-19 10:33N 41°21' W 072°05'0 0.3
2014-Sep-19 09:33N 41°21' W 072°06'1 0.1
2014-Sep-19 00:34N 41°20' W 072°05'  
Track history (hours):
 
Tides and Currents Weather Stations Pressure Air Temp Water Temp Dewpoint Dewpoint Depression Visibility Wind Speed Wind Dir Waves Ship Positions

Sea Jet

Owner: Cross Sound Ferry Services, Inc., New London, CT. More information available from US FCC via Universal Licensing System and Coast Guard Vessel Documentation Center.

Last reported at 2014-Sep-29 00:33 UTC. Time now 2014-Oct-21 21:40 UTC.
Position N 41°20' W 072°05'.
Warning: this ship's position is 22 days out of date.

Length 33 m.

Type: High speed craft. MMSI: 367117430.

Date/timePositionNaut miles runAvg speedWind from/ knotsBaromVisibWave heightAir tempDewpointWater temp
2014-Sep-29 00:33N 41°20' W 072°05'10 9.6
2014-Sep-28 23:34N 41°12' W 072°12'9 9.5
2014-Sep-28 22:34N 41°20' W 072°05'9 8.7
2014-Sep-28 21:34N 41°13' W 072°12'10 9.7
2014-Sep-28 20:33N 41°21' W 072°06'0 0.0
2014-Sep-28 19:33N 41°21' W 072°06'0 0.0
2014-Sep-28 18:33N 41°21' W 072°06'0 0.0
2014-Sep-28 17:33N 41°21' W 072°06'0 0.0
2014-Sep-28 16:33N 41°21' W 072°06'0 0.0
2014-Sep-28 15:33N 41°21' W 072°06'3 3.1
2014-Sep-28 14:34N 41°18' W 072°05'9 9.5
2014-Sep-28 13:34N 41°11' W 072°13'1211.5
2014-Sep-28 12:33N 41°21' W 072°06'1413.8
2014-Sep-28 11:34N 41°09' W 072°14'1413.8
2014-Sep-28 10:33N 41°21' W 072°05'2 0.2
2014-Sep-28 00:34N 41°20' W 072°05'8 7.5
2014-Sep-27 23:34N 41°14' W 072°11'7 7.3
2014-Sep-27 22:34N 41°20' W 072°05'8 7.5
2014-Sep-27 21:34N 41°13' W 072°11'9 8.9
2014-Sep-27 20:33N 41°21' W 072°06'0 0.0
2014-Sep-27 19:33N 41°21' W 072°06'0 0.0
2014-Sep-27 18:33N 41°21' W 072°06'0 0.0
2014-Sep-27 17:33N 41°21' W 072°06'0 0.0
2014-Sep-27 16:33N 41°21' W 072°06'0 0.0
2014-Sep-27 15:33N 41°21' W 072°06'4 3.7
2014-Sep-27 14:34N 41°18' W 072°05'8 7.9
2014-Sep-27 13:34N 41°12' W 072°12'1110.7
2014-Sep-27 12:33N 41°21' W 072°06'1413.8
2014-Sep-27 11:33N 41°09' W 072°14'1413.8
2014-Sep-27 10:33N 41°21' W 072°05'0 0.3
2014-Sep-27 09:33N 41°21' W 072°06'5 0.5
2014-Sep-27 00:34N 41°17' W 072°06'5 5.3
2014-Sep-26 23:34N 41°13' W 072°11'8 8.1
2014-Sep-26 22:34N 41°20' W 072°05'1010.0
2014-Sep-26 21:34N 41°12' W 072°13'1111.0
2014-Sep-26 20:34N 41°21' W 072°06'0 0.0
2014-Sep-26 19:33N 41°21' W 072°06'0 0.0
2014-Sep-26 18:33N 41°21' W 072°06'0 0.0
2014-Sep-26 17:33N 41°21' W 072°06'0 0.0
2014-Sep-26 16:33N 41°21' W 072°06'0 0.0
2014-Sep-26 15:33N 41°21' W 072°06'3 3.5
2014-Sep-26 14:33N 41°18' W 072°05'1010.0
2014-Sep-26 13:34N 41°10' W 072°13'1312.6
2014-Sep-26 12:33N 41°21' W 072°06'1413.8
2014-Sep-26 11:33N 41°09' W 072°14'1413.7
2014-Sep-26 10:34N 41°21' W 072°05'0 0.3
2014-Sep-26 09:34N 41°21' W 072°06'2 0.3
2014-Sep-26 00:34N 41°19' W 072°05'9 9.1
2014-Sep-25 23:34N 41°12' W 072°13'9 9.5
2014-Sep-25 22:33N 41°20' W 072°05'9 9.5
2014-Sep-25 21:34N 41°12' W 072°12'1110.7
2014-Sep-25 20:33N 41°21' W 072°06'0 0.0
2014-Sep-25 19:34N 41°21' W 072°06'0 0.0
2014-Sep-25 18:34N 41°21' W 072°06'0 0.0
2014-Sep-25 17:33N 41°21' W 072°06'0 0.0
2014-Sep-25 16:33N 41°21' W 072°06'0 0.0
2014-Sep-25 15:33N 41°21' W 072°06'6 5.6
2014-Sep-25 14:33N 41°16' W 072°06'8 7.5
2014-Sep-25 13:34N 41°10' W 072°13'1212.4
2014-Sep-25 12:33N 41°21' W 072°06'1413.7
2014-Sep-25 11:33N 41°09' W 072°14'1413.6
2014-Sep-25 10:33N 41°21' W 072°05'1 0.1
2014-Sep-25 00:34N 41°20' W 072°05'1110.8
2014-Sep-24 23:34N 41°11' W 072°13'1111.0
2014-Sep-24 22:34N 41°20' W 072°05'9 8.6
2014-Sep-24 21:34N 41°13' W 072°11'9 9.5
2014-Sep-24 20:33N 41°21' W 072°06'0 0.0
2014-Sep-24 19:34N 41°21' W 072°06'0 0.0
2014-Sep-24 18:33N 41°21' W 072°06'0 0.0
2014-Sep-24 17:33N 41°21' W 072°06'0 0.0
2014-Sep-24 16:33N 41°21' W 072°06'0 0.0
2014-Sep-24 15:33N 41°21' W 072°06'2 1.7
2014-Sep-24 14:34N 41°20' W 072°05'1010.4
2014-Sep-24 13:34N 41°11' W 072°13'1211.6
2014-Sep-24 12:33N 41°21' W 072°06'1313.5
2014-Sep-24 11:34N 41°09' W 072°14'1313.5
2014-Sep-24 10:33N 41°21' W 072°06'1 0.1
2014-Sep-24 00:34N 41°20' W 072°05'7 6.5
2014-Sep-23 23:28N 41°14' W 072°10'7 7.8
2014-Sep-23 22:33N 41°20' W 072°05'9 9.4
2014-Sep-23 21:34N 41°12' W 072°12'1010.1
2014-Sep-23 20:33N 41°21' W 072°06'0 0.0
2014-Sep-23 19:33N 41°21' W 072°06'0 0.0
2014-Sep-23 18:33N 41°21' W 072°06'0 0.0
2014-Sep-23 17:34N 41°21' W 072°06'0 0.0
2014-Sep-23 16:33N 41°21' W 072°06'0 0.0
2014-Sep-23 15:33N 41°21' W 072°06'2 1.8
2014-Sep-23 14:34N 41°20' W 072°05'9 8.9
2014-Sep-23 13:34N 41°13' W 072°12'1010.0
2014-Sep-23 12:34N 41°21' W 072°06'1413.9
2014-Sep-23 11:33N 41°09' W 072°14'1413.9
2014-Sep-23 10:34N 41°21' W 072°05'1 0.1
2014-Sep-23 00:34N 41°20' W 072°05'10 9.6
2014-Sep-22 23:34N 41°12' W 072°13'10 9.8
2014-Sep-22 22:33N 41°20' W 072°05'10 9.7
2014-Sep-22 21:34N 41°12' W 072°12'1010.4
2014-Sep-22 20:33N 41°21' W 072°06'1 0.1
2014-Sep-22 00:33N 41°20' W 072°05'1110.7
2014-Sep-21 23:34N 41°12' W 072°13'1110.7
2014-Sep-21 22:34N 41°20' W 072°05'9 9.4
2014-Sep-21 21:34N 41°13' W 072°12'1010.0
2014-Sep-21 20:33N 41°21' W 072°06'0 0.0
2014-Sep-21 19:33N 41°21' W 072°06'0 0.0
2014-Sep-21 18:33N 41°21' W 072°06'0 0.0
2014-Sep-21 17:33N 41°21' W 072°06'0 0.0
2014-Sep-21 16:33N 41°21' W 072°06'0 0.0
2014-Sep-21 15:33N 41°21' W 072°06'1 1.5
2014-Sep-21 14:34N 41°20' W 072°05'8 7.8
2014-Sep-21 13:34N 41°13' W 072°11'9 8.8
2014-Sep-21 12:33N 41°21' W 072°06'1413.9
2014-Sep-21 11:34N 41°09' W 072°14'1413.8
2014-Sep-21 10:34N 41°21' W 072°05'1 0.1
2014-Sep-21 00:33N 41°20' W 072°05'9 8.9
2014-Sep-20 23:34N 41°13' W 072°12'9 9.1
2014-Sep-20 22:34N 41°20' W 072°05'8 8.1
2014-Sep-20 21:34N 41°14' W 072°11'9 8.7
2014-Sep-20 20:33N 41°21' W 072°06'0 0.0
2014-Sep-20 19:34N 41°21' W 072°06'0 0.0
2014-Sep-20 18:33N 41°21' W 072°06'0 0.0
2014-Sep-20 17:33N 41°21' W 072°06'0 0.0
2014-Sep-20 16:33N 41°21' W 072°06'0 0.0
2014-Sep-20 15:33N 41°21' W 072°06'1 1.3
2014-Sep-20 14:33N 41°20' W 072°05'1010.4
2014-Sep-20 13:34N 41°12' W 072°13'1111.2
2014-Sep-20 12:33N 41°21' W 072°06'1413.8
2014-Sep-20 11:33N 41°09' W 072°14'1413.8
2014-Sep-20 10:33N 41°21' W 072°05'0 0.3
2014-Sep-20 09:33N 41°21' W 072°06'1 0.2
2014-Sep-20 00:34N 41°20' W 072°05'1010.2
2014-Sep-19 23:34N 41°12' W 072°13'1010.1
2014-Sep-19 22:34N 41°20' W 072°05'10 9.7
2014-Sep-19 21:33N 41°12' W 072°13'1110.7
2014-Sep-19 20:33N 41°21' W 072°06'0 0.0
2014-Sep-19 19:34N 41°21' W 072°06'0 0.0
2014-Sep-19 18:34N 41°21' W 072°06'0 0.0
2014-Sep-19 17:34N 41°21' W 072°06'0 0.0
2014-Sep-19 16:33N 41°21' W 072°06'0 0.0
2014-Sep-19 15:33N 41°21' W 072°06'2 1.6
2014-Sep-19 14:34N 41°20' W 072°05'10 9.8
2014-Sep-19 13:33N 41°12' W 072°13'1111.0
2014-Sep-19 12:33N 41°21' W 072°06'1413.6
2014-Sep-19 11:33N 41°09' W 072°14'1313.5
2014-Sep-19 10:33N 41°21' W 072°05'0 0.3
2014-Sep-19 09:33N 41°21' W 072°06'1 0.1
2014-Sep-19 00:34N 41°20' W 072°05'  

Dump ship's entire track history